Terminal Aerodrome Forecast
Issued by NWS

Home | Current Version | Previous Version | Text Only | Print | Product List | Glossary On
Versions: 1 2 3 4 5 6 7 8 9 10 11 12 13 14 15 16 17 18
000
FTUS45 KTWC 230216 AAA
TAFOLS
TAF AMD
KOLS 230216Z 2302/2324 16008KT P6SM VCSH SCT060 BKN080
      TEMPO 2302/2304 VRB15G30KT 4SM -TSRA BKN040CB BKN060
     FM230400 15005KT P6SM SCT070 BKN120
     FM231800 28007KT P6SM VCSH SCT080 BKN150=

USA.gov is the U.S. government's official web portal to all federal, state and local government web resources and services.